sensor_id;sensor_type;location;lat;lon;timestamp;temperature;humidity
74416;SHT31;62850;42.428;25.618;2023-07-20T00:00:39;27.07;47.48
74416;SHT31;62850;42.428;25.618;2023-07-20T00:03:12;27.12;46.78
74416;SHT31;62850;42.428;25.618;2023-07-20T00:05:42;27.14;46.26
74416;SHT31;62850;42.428;25.618;2023-07-20T00:08:08;27.14;45.48
74416;SHT31;62850;42.428;25.618;2023-07-20T00:10:33;27.24;45.32
74416;SHT31;62850;42.428;25.618;2023-07-20T00:12:59;27.18;45.48
74416;SHT31;62850;42.428;25.618;2023-07-20T00:15:24;27.21;45.41
74416;SHT31;62850;42.428;25.618;2023-07-20T00:17:50;27.18;45.62
74416;SHT31;62850;42.428;25.618;2023-07-20T00:20:15;27.21;45.73
74416;SHT31;62850;42.428;25.618;2023-07-20T00:22:41;27.21;45.66
74416;SHT31;62850;42.428;25.618;2023-07-20T00:25:06;27.11;45.66
74416;SHT31;62850;42.428;25.618;2023-07-20T00:27:32;27.12;45.48
74416;SHT31;62850;42.428;25.618;2023-07-20T00:29:57;27.08;45.56
74416;SHT31;62850;42.428;25.618;2023-07-20T00:32:23;27.11;45.29
74416;SHT31;62850;42.428;25.618;2023-07-20T00:34:48;27.15;44.72
74416;SHT31;62850;42.428;25.618;2023-07-20T00:37:14;27.18;44.67
74416;SHT31;62850;42.428;25.618;2023-07-20T00:39:39;27.18;44.51
74416;SHT31;62850;42.428;25.618;2023-07-20T00:42:05;27.25;43.96
74416;SHT31;62850;42.428;25.618;2023-07-20T00:44:30;27.28;43.66
74416;SHT31;62850;42.428;25.618;2023-07-20T00:46:56;27.35;43.41
74416;SHT31;62850;42.428;25.618;2023-07-20T00:49:22;27.42;43.17
74416;SHT31;62850;42.428;25.618;2023-07-20T00:51:49;27.42;43.20
74416;SHT31;62850;42.428;25.618;2023-07-20T00:54:15;27.41;43.16
74416;SHT31;62850;42.428;25.618;2023-07-20T00:56:41;27.43;43.23
74416;SHT31;62850;42.428;25.618;2023-07-20T00:59:07;27.38;43.30
74416;SHT31;62850;42.428;25.618;2023-07-20T01:01:33;27.41;43.28
74416;SHT31;62850;42.428;25.618;2023-07-20T01:03:58;27.45;43.16
74416;SHT31;62850;42.428;25.618;2023-07-20T01:14:10;27.56;42.86
74416;SHT31;62850;42.428;25.618;2023-07-20T01:16:37;27.65;42.73
74416;SHT31;62850;42.428;25.618;2023-07-20T01:19:02;27.60;42.91
74416;SHT31;62850;42.428;25.618;2023-07-20T01:21:36;27.70;42.83
74416;SHT31;62850;42.428;25.618;2023-07-20T01:30:01;27.69;44.26
74416;SHT31;62850;42.428;25.618;2023-07-20T01:32:31;27.69;44.12
74416;SHT31;62850;42.428;25.618;2023-07-20T01:34:58;27.66;44.47
74416;SHT31;62850;42.428;25.618;2023-07-20T01:37:26;27.59;44.36
74416;SHT31;62850;42.428;25.618;2023-07-20T01:39:55;27.55;44.61
74416;SHT31;62850;42.428;25.618;2023-07-20T01:42:22;27.50;44.95
74416;SHT31;62850;42.428;25.618;2023-07-20T01:44:50;27.48;45.01
74416;SHT31;62850;42.428;25.618;2023-07-20T01:47:16;27.49;44.75
74416;SHT31;62850;42.428;25.618;2023-07-20T01:49:41;27.49;44.78
74416;SHT31;62850;42.428;25.618;2023-07-20T01:52:07;27.46;44.97
74416;SHT31;62850;42.428;25.618;2023-07-20T01:54:32;27.42;45.15
74416;SHT31;62850;42.428;25.618;2023-07-20T01:56:58;27.31;45.29
74416;SHT31;62850;42.428;25.618;2023-07-20T01:59:23;27.29;45.18
74416;SHT31;62850;42.428;25.618;2023-07-20T02:01:49;27.18;45.79
74416;SHT31;62850;42.428;25.618;2023-07-20T02:04:14;27.16;45.63
74416;SHT31;62850;42.428;25.618;2023-07-20T02:06:40;27.10;45.39
74416;SHT31;62850;42.428;25.618;2023-07-20T02:09:05;27.10;45.28
74416;SHT31;62850;42.428;25.618;2023-07-20T02:11:31;27.04;45.52
74416;SHT31;62850;42.428;25.618;2023-07-20T02:13:56;26.98;45.44
74416;SHT31;62850;42.428;25.618;2023-07-20T02:16:22;26.95;45.57
74416;SHT31;62850;42.428;25.618;2023-07-20T02:18:47;26.79;46.24
74416;SHT31;62850;42.428;25.618;2023-07-20T02:21:13;26.71;46.53
74416;SHT31;62850;42.428;25.618;2023-07-20T02:23:38;26.73;46.51
74416;SHT31;62850;42.428;25.618;2023-07-20T02:26:03;26.71;47.10
74416;SHT31;62850;42.428;25.618;2023-07-20T02:28:29;26.73;46.84
74416;SHT31;62850;42.428;25.618;2023-07-20T02:30:54;26.80;46.69
74416;SHT31;62850;42.428;25.618;2023-07-20T02:33:20;26.67;47.21
74416;SHT31;62850;42.428;25.618;2023-07-20T02:35:47;26.64;47.10
74416;SHT31;62850;42.428;25.618;2023-07-20T02:38:12;26.61;47.79
74416;SHT31;62850;42.428;25.618;2023-07-20T02:40:38;26.60;47.30
74416;SHT31;62850;42.428;25.618;2023-07-20T02:43:03;26.56;47.52
74416;SHT31;62850;42.428;25.618;2023-07-20T02:45:29;26.56;47.52
74416;SHT31;62850;42.428;25.618;2023-07-20T02:47:54;26.50;48.05
74416;SHT31;62850;42.428;25.618;2023-07-20T02:50:20;26.40;48.35
74416;SHT31;62850;42.428;25.618;2023-07-20T02:52:45;26.37;48.07
74416;SHT31;62850;42.428;25.618;2023-07-20T02:55:11;26.42;47.38
74416;SHT31;62850;42.428;25.618;2023-07-20T02:57:36;26.49;47.57
74416;SHT31;62850;42.428;25.618;2023-07-20T03:00:03;26.54;47.70
74416;SHT31;62850;42.428;25.618;2023-07-20T03:02:30;26.51;47.61
74416;SHT31;62850;42.428;25.618;2023-07-20T03:04:55;26.35;47.85
74416;SHT31;62850;42.428;25.618;2023-07-20T03:07:22;26.30;47.65
74416;SHT31;62850;42.428;25.618;2023-07-20T03:09:48;26.33;47.19
74416;SHT31;62850;42.428;25.618;2023-07-20T03:12:13;26.37;47.57
74416;SHT31;62850;42.428;25.618;2023-07-20T03:14:39;26.44;46.30
74416;SHT31;62850;42.428;25.618;2023-07-20T03:17:04;26.43;46.44
74416;SHT31;62850;42.428;25.618;2023-07-20T03:19:30;26.39;46.61
74416;SHT31;62850;42.428;25.618;2023-07-20T03:21:55;26.28;46.94
74416;SHT31;62850;42.428;25.618;2023-07-20T03:24:21;26.22;47.12
74416;SHT31;62850;42.428;25.618;2023-07-20T03:26:46;26.09;47.32
74416;SHT31;62850;42.428;25.618;2023-07-20T03:29:12;26.06;47.53
74416;SHT31;62850;42.428;25.618;2023-07-20T03:31:38;26.02;47.59
74416;SHT31;62850;42.428;25.618;2023-07-20T03:34:04;25.98;47.66
74416;SHT31;62850;42.428;25.618;2023-07-20T03:36:30;26.02;47.54
74416;SHT31;62850;42.428;25.618;2023-07-20T03:38:56;26.01;47.53
74416;SHT31;62850;42.428;25.618;2023-07-20T03:41:22;25.93;47.69
74416;SHT31;62850;42.428;25.618;2023-07-20T03:43:47;25.95;47.88
74416;SHT31;62850;42.428;25.618;2023-07-20T03:46:13;25.93;48.03
74416;SHT31;62850;42.428;25.618;2023-07-20T03:48:38;25.93;48.04
74416;SHT31;62850;42.428;25.618;2023-07-20T03:51:03;25.95;48.25
74416;SHT31;62850;42.428;25.618;2023-07-20T03:53:29;26.02;48.38
74416;SHT31;62850;42.428;25.618;2023-07-20T03:55:54;26.08;48.48
74416;SHT31;62850;42.428;25.618;2023-07-20T03:58:21;25.98;48.81
74416;SHT31;62850;42.428;25.618;2023-07-20T04:00:48;26.02;48.87
74416;SHT31;62850;42.428;25.618;2023-07-20T04:03:14;26.02;48.95
74416;SHT31;62850;42.428;25.618;2023-07-20T04:05:40;26.09;48.82
74416;SHT31;62850;42.428;25.618;2023-07-20T04:08:05;26.06;49.00
74416;SHT31;62850;42.428;25.618;2023-07-20T04:10:31;26.11;48.98
74416;SHT31;62850;42.428;25.618;2023-07-20T04:12:56;26.22;48.86
74416;SHT31;62850;42.428;25.618;2023-07-20T04:15:22;26.32;48.69
74416;SHT31;62850;42.428;25.618;2023-07-20T04:17:47;26.37;48.73
74416;SHT31;62850;42.428;25.618;2023-07-20T04:20:13;26.36;48.59
74416;SHT31;62850;42.428;25.618;2023-07-20T04:22:38;26.46;48.43
74416;SHT31;62850;42.428;25.618;2023-07-20T04:25:04;26.53;48.53
74416;SHT31;62850;42.428;25.618;2023-07-20T04:27:30;26.54;48.58
74416;SHT31;62850;42.428;25.618;2023-07-20T04:29:57;26.49;49.00
74416;SHT31;62850;42.428;25.618;2023-07-20T04:32:24;26.46;49.27
74416;SHT31;62850;42.428;25.618;2023-07-20T04:34:50;26.42;49.55
74416;SHT31;62850;42.428;25.618;2023-07-20T04:37:15;26.44;49.35
74416;SHT31;62850;42.428;25.618;2023-07-20T04:39:41;26.49;49.34
74416;SHT31;62850;42.428;25.618;2023-07-20T04:42:06;26.60;49.04
74416;SHT31;62850;42.428;25.618;2023-07-20T04:44:32;26.64;48.77
74416;SHT31;62850;42.428;25.618;2023-07-20T04:46:57;26.70;48.84
74416;SHT31;62850;42.428;25.618;2023-07-20T04:49:23;26.70;49.02
74416;SHT31;62850;42.428;25.618;2023-07-20T04:51:48;26.70;48.97
74416;SHT31;62850;42.428;25.618;2023-07-20T04:54:14;26.70;49.02
74416;SHT31;62850;42.428;25.618;2023-07-20T04:56:40;26.80;48.66
74416;SHT31;62850;42.428;25.618;2023-07-20T04:59:05;26.86;48.43
74416;SHT31;62850;42.428;25.618;2023-07-20T05:01:31;26.97;48.22
74416;SHT31;62850;42.428;25.618;2023-07-20T05:03:56;27.08;48.07
74416;SHT31;62850;42.428;25.618;2023-07-20T05:06:22;27.28;47.50
74416;SHT31;62850;42.428;25.618;2023-07-20T05:08:47;27.38;47.09
74416;SHT31;62850;42.428;25.618;2023-07-20T05:11:13;27.52;46.69
74416;SHT31;62850;42.428;25.618;2023-07-20T05:13:38;27.69;46.21
74416;SHT31;62850;42.428;25.618;2023-07-20T05:16:04;27.83;45.89
74416;SHT31;62850;42.428;25.618;2023-07-20T05:18:29;27.87;45.40
74416;SHT31;62850;42.428;25.618;2023-07-20T05:20:55;27.97;45.23
74416;SHT31;62850;42.428;25.618;2023-07-20T05:23:21;28.08;44.94
74416;SHT31;62850;42.428;25.618;2023-07-20T05:25:56;28.08;45.18
74416;SHT31;62850;42.428;25.618;2023-07-20T05:28:23;28.17;44.68
74416;SHT31;62850;42.428;25.618;2023-07-20T05:30:50;28.31;44.68
74416;SHT31;62850;42.428;25.618;2023-07-20T05:33:17;28.38;44.18
74416;SHT31;62850;42.428;25.618;2023-07-20T05:35:43;28.43;44.58
74416;SHT31;62850;42.428;25.618;2023-07-20T05:38:08;28.40;45.06
74416;SHT31;62850;42.428;25.618;2023-07-20T05:40:38;28.47;44.80
74416;SHT31;62850;42.428;25.618;2023-07-20T05:43:03;28.51;44.28
74416;SHT31;62850;42.428;25.618;2023-07-20T05:45:29;28.51;44.36
74416;SHT31;62850;42.428;25.618;2023-07-20T05:47:54;28.52;44.23
74416;SHT31;62850;42.428;25.618;2023-07-20T05:50:20;28.51;44.22
74416;SHT31;62850;42.428;25.618;2023-07-20T05:52:45;28.64;44.24
74416;SHT31;62850;42.428;25.618;2023-07-20T05:55:11;28.79;44.02
74416;SHT31;62850;42.428;25.618;2023-07-20T05:57:36;28.83;43.94
74416;SHT31;62850;42.428;25.618;2023-07-20T06:00:07;28.96;43.80
74416;SHT31;62850;42.428;25.618;2023-07-20T06:02:33;29.03;43.23
74416;SHT31;62850;42.428;25.618;2023-07-20T06:04:58;29.22;42.95
74416;SHT31;62850;42.428;25.618;2023-07-20T06:07:24;29.20;42.70
74416;SHT31;62850;42.428;25.618;2023-07-20T06:09:49;29.23;42.97
74416;SHT31;62850;42.428;25.618;2023-07-20T06:12:15;29.31;41.67
74416;SHT31;62850;42.428;25.618;2023-07-20T06:14:40;29.36;41.25
74416;SHT31;62850;42.428;25.618;2023-07-20T06:17:06;29.42;41.18
74416;SHT31;62850;42.428;25.618;2023-07-20T06:19:31;29.47;41.33
74416;SHT31;62850;42.428;25.618;2023-07-20T06:21:57;29.60;41.46
74416;SHT31;62850;42.428;25.618;2023-07-20T06:24:22;29.65;40.76
74416;SHT31;62850;42.428;25.618;2023-07-20T06:26:48;29.75;40.37
74416;SHT31;62850;42.428;25.618;2023-07-20T06:29:13;29.81;40.28
74416;SHT31;62850;42.428;25.618;2023-07-20T06:31:39;29.91;40.50
74416;SHT31;62850;42.428;25.618;2023-07-20T06:34:04;30.04;40.02
74416;SHT31;62850;42.428;25.618;2023-07-20T06:36:30;30.11;39.68
74416;SHT31;62850;42.428;25.618;2023-07-20T06:38:56;30.15;39.21
74416;SHT31;62850;42.428;25.618;2023-07-20T06:41:21;30.22;39.21
74416;SHT31;62850;42.428;25.618;2023-07-20T06:43:47;30.26;39.41
74416;SHT31;62850;42.428;25.618;2023-07-20T06:46:13;30.39;38.89
74416;SHT31;62850;42.428;25.618;2023-07-20T06:48:39;30.42;39.14
74416;SHT31;62850;42.428;25.618;2023-07-20T06:51:04;30.47;39.11
74416;SHT31;62850;42.428;25.618;2023-07-20T06:53:30;30.57;39.01
74416;SHT31;62850;42.428;25.618;2023-07-20T06:55:56;30.69;39.02
74416;SHT31;62850;42.428;25.618;2023-07-20T06:58:24;30.82;38.87
74416;SHT31;62850;42.428;25.618;2023-07-20T07:00:50;30.87;38.91
74416;SHT31;62850;42.428;25.618;2023-07-20T07:03:15;30.88;38.72
74416;SHT31;62850;42.428;25.618;2023-07-20T07:05:41;30.91;38.74
74416;SHT31;62850;42.428;25.618;2023-07-20T07:08:07;30.95;38.84
74416;SHT31;62850;42.428;25.618;2023-07-20T07:10:35;31.03;38.20
74416;SHT31;62850;42.428;25.618;2023-07-20T07:13:01;30.94;38.83
74416;SHT31;62850;42.428;25.618;2023-07-20T07:15:27;31.00;38.87
74416;SHT31;62850;42.428;25.618;2023-07-20T07:17:53;31.11;39.11
74416;SHT31;62850;42.428;25.618;2023-07-20T07:20:18;31.18;38.67
74416;SHT31;62850;42.428;25.618;2023-07-20T07:22:44;31.20;38.85
74416;SHT31;62850;42.428;25.618;2023-07-20T07:25:10;31.30;38.98
74416;SHT31;62850;42.428;25.618;2023-07-20T07:27:36;31.34;38.40
74416;SHT31;62850;42.428;25.618;2023-07-20T07:30:02;31.45;38.96
74416;SHT31;62850;42.428;25.618;2023-07-20T07:32:28;31.52;38.54
74416;SHT31;62850;42.428;25.618;2023-07-20T07:34:53;31.63;38.60
74416;SHT31;62850;42.428;25.618;2023-07-20T07:37:19;31.76;38.39
74416;SHT31;62850;42.428;25.618;2023-07-20T07:39:45;31.89;38.07
74416;SHT31;62850;42.428;25.618;2023-07-20T07:42:11;31.96;37.85
74416;SHT31;62850;42.428;25.618;2023-07-20T07:44:37;32.09;37.15
74416;SHT31;62850;42.428;25.618;2023-07-20T07:47:03;32.27;36.97
74416;SHT31;62850;42.428;25.618;2023-07-20T07:49:28;32.43;37.23
74416;SHT31;62850;42.428;25.618;2023-07-20T07:51:54;32.56;36.77
74416;SHT31;62850;42.428;25.618;2023-07-20T07:54:19;32.68;35.95
74416;SHT31;62850;42.428;25.618;2023-07-20T07:56:45;32.75;35.44
74416;SHT31;62850;42.428;25.618;2023-07-20T07:59:11;32.84;35.45
74416;SHT31;62850;42.428;25.618;2023-07-20T08:01:36;32.97;35.28
74416;SHT31;62850;42.428;25.618;2023-07-20T08:04:02;33.02;35.19
74416;SHT31;62850;42.428;25.618;2023-07-20T08:06:29;33.26;35.12
74416;SHT31;62850;42.428;25.618;2023-07-20T08:08:54;33.50;34.80
74416;SHT31;62850;42.428;25.618;2023-07-20T08:11:20;33.73;34.44
74416;SHT31;62850;42.428;25.618;2023-07-20T08:13:45;33.96;34.79
74416;SHT31;62850;42.428;25.618;2023-07-20T08:16:11;34.18;34.38
74416;SHT31;62850;42.428;25.618;2023-07-20T08:18:36;34.48;34.53
74416;SHT31;62850;42.428;25.618;2023-07-20T08:21:01;34.71;34.51
74416;SHT31;62850;42.428;25.618;2023-07-20T08:23:28;34.79;33.22
74416;SHT31;62850;42.428;25.618;2023-07-20T08:25:53;34.96;33.23
74416;SHT31;62850;42.428;25.618;2023-07-20T08:28:19;35.07;33.36
74416;SHT31;62850;42.428;25.618;2023-07-20T08:30:46;35.29;33.72
74416;SHT31;62850;42.428;25.618;2023-07-20T08:33:21;35.43;33.61
74416;SHT31;62850;42.428;25.618;2023-07-20T08:35:47;35.61;33.07
74416;SHT31;62850;42.428;25.618;2023-07-20T08:38:13;35.78;32.91
74416;SHT31;62850;42.428;25.618;2023-07-20T08:40:40;35.88;32.31
74416;SHT31;62850;42.428;25.618;2023-07-20T08:43:06;35.85;31.91
74416;SHT31;62850;42.428;25.618;2023-07-20T08:45:35;35.98;31.80
74416;SHT31;62850;42.428;25.618;2023-07-20T08:48:02;35.97;31.10
74416;SHT31;62850;42.428;25.618;2023-07-20T08:50:30;35.88;31.44
74416;SHT31;62850;42.428;25.618;2023-07-20T08:52:57;36.06;31.68
74416;SHT31;62850;42.428;25.618;2023-07-20T08:55:24;36.12;31.59
74416;SHT31;62850;42.428;25.618;2023-07-20T08:57:50;36.25;31.37
74416;SHT31;62850;42.428;25.618;2023-07-20T09:00:20;36.31;30.99
74416;SHT31;62850;42.428;25.618;2023-07-20T09:02:49;36.19;31.23
74416;SHT31;62850;42.428;25.618;2023-07-20T09:05:15;36.24;32.21
74416;SHT31;62850;42.428;25.618;2023-07-20T09:07:41;36.21;32.31
74416;SHT31;62850;42.428;25.618;2023-07-20T09:10:07;36.22;31.64
74416;SHT31;62850;42.428;25.618;2023-07-20T09:12:38;36.42;32.10
74416;SHT31;62850;42.428;25.618;2023-07-20T09:15:05;36.56;31.81
74416;SHT31;62850;42.428;25.618;2023-07-20T09:17:31;36.73;31.29
74416;SHT31;62850;42.428;25.618;2023-07-20T09:19:56;36.88;31.10
74416;SHT31;62850;42.428;25.618;2023-07-20T09:22:21;36.91;31.26
74416;SHT31;62850;42.428;25.618;2023-07-20T09:24:47;36.84;30.68
74416;SHT31;62850;42.428;25.618;2023-07-20T09:27:12;36.87;30.70
74416;SHT31;62850;42.428;25.618;2023-07-20T09:29:51;37.03;31.11
74416;SHT31;62850;42.428;25.618;2023-07-20T09:32:21;37.11;31.38
74416;SHT31;62850;42.428;25.618;2023-07-20T09:34:47;37.28;31.00
74416;SHT31;62850;42.428;25.618;2023-07-20T09:37:12;37.42;30.30
74416;SHT31;62850;42.428;25.618;2023-07-20T09:39:45;37.45;30.46
74416;SHT31;62850;42.428;25.618;2023-07-20T09:42:14;37.62;30.73
74416;SHT31;62850;42.428;25.618;2023-07-20T09:44:42;37.68;30.11
74416;SHT31;62850;42.428;25.618;2023-07-20T09:47:08;37.82;30.18
74416;SHT31;62850;42.428;25.618;2023-07-20T09:49:39;37.85;30.46
74416;SHT31;62850;42.428;25.618;2023-07-20T09:52:05;37.89;30.78
74416;SHT31;62850;42.428;25.618;2023-07-20T09:54:31;37.76;30.55
74416;SHT31;62850;42.428;25.618;2023-07-20T09:56:58;37.93;29.47
74416;SHT31;62850;42.428;25.618;2023-07-20T09:59:23;38.02;30.10
74416;SHT31;62850;42.428;25.618;2023-07-20T10:01:52;38.15;28.99
74416;SHT31;62850;42.428;25.618;2023-07-20T10:04:20;38.13;29.85
74416;SHT31;62850;42.428;25.618;2023-07-20T10:06:47;37.95;30.25
74416;SHT31;62850;42.428;25.618;2023-07-20T10:09:15;37.81;30.33
74416;SHT31;62850;42.428;25.618;2023-07-20T10:11:45;37.57;30.83
74416;SHT31;62850;42.428;25.618;2023-07-20T10:14:16;37.49;31.34
74416;SHT31;62850;42.428;25.618;2023-07-20T10:16:50;37.45;30.92
74416;SHT31;62850;42.428;25.618;2023-07-20T10:19:23;37.30;31.56
74416;SHT31;62850;42.428;25.618;2023-07-20T10:21:57;37.10;30.86
74416;SHT31;62850;42.428;25.618;2023-07-20T10:24:26;37.17;30.99
74416;SHT31;62850;42.428;25.618;2023-07-20T10:26:52;37.24;31.39
74416;SHT31;62850;42.428;25.618;2023-07-20T10:29:17;37.35;31.21
74416;SHT31;62850;42.428;25.618;2023-07-20T10:31:43;37.42;31.14
74416;SHT31;62850;42.428;25.618;2023-07-20T10:34:09;37.41;31.17
74416;SHT31;62850;42.428;25.618;2023-07-20T10:36:44;37.44;30.96
74416;SHT31;62850;42.428;25.618;2023-07-20T10:39:26;37.42;30.91
74416;SHT31;62850;42.428;25.618;2023-07-20T10:42:09;37.39;30.61
74416;SHT31;62850;42.428;25.618;2023-07-20T10:44:38;37.53;31.01
74416;SHT31;62850;42.428;25.618;2023-07-20T10:47:09;37.58;31.55
74416;SHT31;62850;42.428;25.618;2023-07-20T10:49:35;37.62;30.96
74416;SHT31;62850;42.428;25.618;2023-07-20T10:52:05;37.68;31.15
74416;SHT31;62850;42.428;25.618;2023-07-20T10:56:58;37.76;30.82
74416;SHT31;62850;42.428;25.618;2023-07-20T10:59:43;37.86;29.49
74416;SHT31;62850;42.428;25.618;2023-07-20T11:02:09;37.85;29.88
74416;SHT31;62850;42.428;25.618;2023-07-20T11:04:52;37.76;30.18
74416;SHT31;62850;42.428;25.618;2023-07-20T11:07:37;37.76;29.47
74416;SHT31;62850;42.428;25.618;2023-07-20T11:10:13;37.75;30.11
74416;SHT31;62850;42.428;25.618;2023-07-20T11:12:40;37.69;30.09
74416;SHT31;62850;42.428;25.618;2023-07-20T11:15:06;37.65;30.20
74416;SHT31;62850;42.428;25.618;2023-07-20T11:17:33;37.64;29.71
74416;SHT31;62850;42.428;25.618;2023-07-20T11:19:59;37.58;29.46
74416;SHT31;62850;42.428;25.618;2023-07-20T11:22:30;37.72;30.58
74416;SHT31;62850;42.428;25.618;2023-07-20T11:24:57;37.88;30.77
74416;SHT31;62850;42.428;25.618;2023-07-20T11:27:23;38.06;29.88
74416;SHT31;62850;42.428;25.618;2023-07-20T11:29:48;38.15;30.14
74416;SHT31;62850;42.428;25.618;2023-07-20T11:32:22;38.19;29.94
74416;SHT31;62850;42.428;25.618;2023-07-20T11:34:48;38.32;29.61
74416;SHT31;62850;42.428;25.618;2023-07-20T11:37:14;38.57;29.36
74416;SHT31;62850;42.428;25.618;2023-07-20T11:39:40;38.68;29.18
74416;SHT31;62850;42.428;25.618;2023-07-20T11:42:05;38.68;29.20
74416;SHT31;62850;42.428;25.618;2023-07-20T11:44:32;38.41;29.39
74416;SHT31;62850;42.428;25.618;2023-07-20T11:47:08;38.36;28.63
74416;SHT31;62850;42.428;25.618;2023-07-20T11:49:38;38.32;28.85
74416;SHT31;62850;42.428;25.618;2023-07-20T11:52:06;37.95;29.63
74416;SHT31;62850;42.428;25.618;2023-07-20T11:54:32;37.37;30.32
74416;SHT31;62850;42.428;25.618;2023-07-20T11:57:01;36.88;31.09
74416;SHT31;62850;42.428;25.618;2023-07-20T11:59:26;36.45;31.37
74416;SHT31;62850;42.428;25.618;2023-07-20T12:01:52;35.98;31.62
74416;SHT31;62850;42.428;25.618;2023-07-20T12:04:18;35.85;32.42
74416;SHT31;62850;42.428;25.618;2023-07-20T12:06:45;36.02;33.04
74416;SHT31;62850;42.428;25.618;2023-07-20T12:09:14;36.38;33.39
74416;SHT31;62850;42.428;25.618;2023-07-20T12:11:43;36.26;34.46
74416;SHT31;62850;42.428;25.618;2023-07-20T12:14:10;35.97;32.99
74416;SHT31;62850;42.428;25.618;2023-07-20T12:16:37;35.85;34.08
74416;SHT31;62850;42.428;25.618;2023-07-20T12:19:09;35.82;34.18
74416;SHT31;62850;42.428;25.618;2023-07-20T12:21:36;35.53;33.66
74416;SHT31;62850;42.428;25.618;2023-07-20T12:24:06;35.55;33.19
74416;SHT31;62850;42.428;25.618;2023-07-20T12:26:33;35.53;34.22
74416;SHT31;62850;42.428;25.618;2023-07-20T12:28:59;35.95;33.19
74416;SHT31;62850;42.428;25.618;2023-07-20T12:31:26;36.24;33.23
74416;SHT31;62850;42.428;25.618;2023-07-20T12:33:52;36.59;31.94
74416;SHT31;62850;42.428;25.618;2023-07-20T12:36:18;36.86;31.41
74416;SHT31;62850;42.428;25.618;2023-07-20T12:38:44;36.93;32.05
74416;SHT31;62850;42.428;25.618;2023-07-20T12:41:11;36.70;32.85
74416;SHT31;62850;42.428;25.618;2023-07-20T12:43:42;36.55;31.86
74416;SHT31;62850;42.428;25.618;2023-07-20T12:46:08;36.72;31.72
74416;SHT31;62850;42.428;25.618;2023-07-20T12:48:35;36.96;31.52
74416;SHT31;62850;42.428;25.618;2023-07-20T12:51:05;37.24;31.21
74416;SHT31;62850;42.428;25.618;2023-07-20T12:53:32;37.33;30.49
74416;SHT31;62850;42.428;25.618;2023-07-20T12:56:01;37.44;32.05
74416;SHT31;62850;42.428;25.618;2023-07-20T12:58:26;37.38;31.44
74416;SHT31;62850;42.428;25.618;2023-07-20T13:00:52;37.03;31.11
74416;SHT31;62850;42.428;25.618;2023-07-20T13:03:18;36.70;32.47
74416;SHT31;62850;42.428;25.618;2023-07-20T13:05:45;36.19;32.56
74416;SHT31;62850;42.428;25.618;2023-07-20T13:08:10;36.12;32.27
74416;SHT31;62850;42.428;25.618;2023-07-20T13:10:37;35.99;32.59
74416;SHT31;62850;42.428;25.618;2023-07-20T13:13:03;35.74;33.71
74416;SHT31;62850;42.428;25.618;2023-07-20T13:15:40;35.43;34.50
74416;SHT31;62850;42.428;25.618;2023-07-20T13:18:05;35.10;34.90
74416;SHT31;62850;42.428;25.618;2023-07-20T13:20:31;34.89;35.44
74416;SHT31;62850;42.428;25.618;2023-07-20T13:22:57;34.65;35.69
74416;SHT31;62850;42.428;25.618;2023-07-20T13:25:22;34.48;35.67
74416;SHT31;62850;42.428;25.618;2023-07-20T13:27:48;34.23;36.33
74416;SHT31;62850;42.428;25.618;2023-07-20T13:30:13;34.17;36.09
74416;SHT31;62850;42.428;25.618;2023-07-20T13:32:43;33.92;46.51
74416;SHT31;62850;42.428;25.618;2023-07-20T13:35:09;33.06;51.60
74416;SHT31;62850;42.428;25.618;2023-07-20T13:37:35;31.86;59.91
74416;SHT31;62850;42.428;25.618;2023-07-20T13:40:00;30.19;64.92
74416;SHT31;62850;42.428;25.618;2023-07-20T13:42:25;28.94;68.03
74416;SHT31;62850;42.428;25.618;2023-07-20T13:44:52;28.13;68.19
74416;SHT31;62850;42.428;25.618;2023-07-20T13:47:17;27.62;66.18
74416;SHT31;62850;42.428;25.618;2023-07-20T13:49:43;27.39;67.45
74416;SHT31;62850;42.428;25.618;2023-07-20T13:52:09;27.21;65.28
74416;SHT31;62850;42.428;25.618;2023-07-20T13:54:34;27.19;72.74
74416;SHT31;62850;42.428;25.618;2023-07-20T13:57:00;27.00;73.84
74416;SHT31;62850;42.428;25.618;2023-07-20T13:59:25;26.98;75.45
74416;SHT31;62850;42.428;25.618;2023-07-20T14:01:51;27.24;75.59
74416;SHT31;62850;42.428;25.618;2023-07-20T14:04:16;27.59;73.98
74416;SHT31;62850;42.428;25.618;2023-07-20T14:06:42;27.85;70.17
74416;SHT31;62850;42.428;25.618;2023-07-20T14:09:08;28.11;69.00
74416;SHT31;62850;42.428;25.618;2023-07-20T14:11:33;28.36;71.29
74416;SHT31;62850;42.428;25.618;2023-07-20T14:13:59;28.57;70.91
74416;SHT31;62850;42.428;25.618;2023-07-20T14:16:24;28.75;66.75
74416;SHT31;62850;42.428;25.618;2023-07-20T14:18:50;28.86;68.14
74416;SHT31;62850;42.428;25.618;2023-07-20T14:21:17;28.68;69.10
74416;SHT31;62850;42.428;25.618;2023-07-20T14:23:45;28.44;69.78
74416;SHT31;62850;42.428;25.618;2023-07-20T14:26:11;28.40;68.62
74416;SHT31;62850;42.428;25.618;2023-07-20T14:28:37;28.14;67.33
74416;SHT31;62850;42.428;25.618;2023-07-20T14:31:03;28.13;70.04
74416;SHT31;62850;42.428;25.618;2023-07-20T14:33:28;28.14;70.70
74416;SHT31;62850;42.428;25.618;2023-07-20T14:35:54;28.16;71.55
74416;SHT31;62850;42.428;25.618;2023-07-20T14:38:19;28.10;71.03
74416;SHT31;62850;42.428;25.618;2023-07-20T14:40:45;28.11;68.25
74416;SHT31;62850;42.428;25.618;2023-07-20T14:43:11;28.01;69.86
74416;SHT31;62850;42.428;25.618;2023-07-20T14:45:36;27.93;67.53
74416;SHT31;62850;42.428;25.618;2023-07-20T14:48:03;27.85;68.49
74416;SHT31;62850;42.428;25.618;2023-07-20T14:50:29;27.69;69.41
74416;SHT31;62850;42.428;25.618;2023-07-20T14:52:54;27.76;70.10
74416;SHT31;62850;42.428;25.618;2023-07-20T14:55:20;27.96;68.62
74416;SHT31;62850;42.428;25.618;2023-07-20T14:57:45;28.10;69.68
74416;SHT31;62850;42.428;25.618;2023-07-20T15:00:11;28.17;67.61
74416;SHT31;62850;42.428;25.618;2023-07-20T15:02:37;28.20;67.79
74416;SHT31;62850;42.428;25.618;2023-07-20T15:05:06;28.11;67.86
74416;SHT31;62850;42.428;25.618;2023-07-20T15:07:31;27.94;65.39
74416;SHT31;62850;42.428;25.618;2023-07-20T15:09:57;27.94;66.41
74416;SHT31;62850;42.428;25.618;2023-07-20T15:12:23;27.96;68.59
74416;SHT31;62850;42.428;25.618;2023-07-20T15:17:32;27.87;65.51
74416;SHT31;62850;42.428;25.618;2023-07-20T15:19:58;27.82;66.38
74416;SHT31;62850;42.428;25.618;2023-07-20T15:22:24;27.97;66.56
74416;SHT31;62850;42.428;25.618;2023-07-20T15:24:50;28.20;65.17
74416;SHT31;62850;42.428;25.618;2023-07-20T15:27:15;28.29;66.74
74416;SHT31;62850;42.428;25.618;2023-07-20T15:29:41;28.29;65.20